sensor_id;sensor_type;location;lat;lon;timestamp;temperature;humidity
12111;DHT22;6119;52.372;8.990;2023-02-28T00:02:41;1.60;99.90
12111;DHT22;6119;52.372;8.990;2023-02-28T00:05:29;0.60;99.90
12111;DHT22;6119;52.372;8.990;2023-02-28T00:08:16;1.60;99.90
12111;DHT22;6119;52.372;8.990;2023-02-28T00:11:03;1.70;99.90
12111;DHT22;6119;52.372;8.990;2023-02-28T00:13:49;1.60;99.90
12111;DHT22;6119;52.372;8.990;2023-02-28T00:16:36;1.50;99.90
12111;DHT22;6119;52.372;8.990;2023-02-28T00:19:23;1.50;99.90
12111;DHT22;6119;52.372;8.990;2023-02-28T00:22:11;1.50;99.90
12111;DHT22;6119;52.372;8.990;2023-02-28T00:24:58;1.40;99.90
12111;DHT22;6119;52.372;8.990;2023-02-28T00:27:45;1.40;99.90
12111;DHT22;6119;52.372;8.990;2023-02-28T00:30:32;1.40;99.90
12111;DHT22;6119;52.372;8.990;2023-02-28T00:33:18;1.40;99.90
12111;DHT22;6119;52.372;8.990;2023-02-28T00:36:06;1.30;99.90
12111;DHT22;6119;52.372;8.990;2023-02-28T00:38:55;1.30;99.90
12111;DHT22;6119;52.372;8.990;2023-02-28T00:41:41;1.30;99.90
12111;DHT22;6119;52.372;8.990;2023-02-28T00:44:28;1.20;99.90
12111;DHT22;6119;52.372;8.990;2023-02-28T00:47:14;1.20;99.90
12111;DHT22;6119;52.372;8.990;2023-02-28T00:50:01;1.20;99.90
12111;DHT22;6119;52.372;8.990;2023-02-28T00:52:48;1.20;99.90
12111;DHT22;6119;52.372;8.990;2023-02-28T00:55:36;1.20;99.90
12111;DHT22;6119;52.372;8.990;2023-02-28T00:58:22;1.10;99.90
12111;DHT22;6119;52.372;8.990;2023-02-28T01:01:09;1.10;99.90
12111;DHT22;6119;52.372;8.990;2023-02-28T01:03:56;1.10;99.90
12111;DHT22;6119;52.372;8.990;2023-02-28T01:06:42;1.00;99.90
12111;DHT22;6119;52.372;8.990;2023-02-28T01:09:29;1.00;99.90
12111;DHT22;6119;52.372;8.990;2023-02-28T01:12:17;1.00;99.90
12111;DHT22;6119;52.372;8.990;2023-02-28T01:15:04;1.00;99.90
12111;DHT22;6119;52.372;8.990;2023-02-28T01:17:50;1.00;99.90
12111;DHT22;6119;52.372;8.990;2023-02-28T01:20:37;1.00;99.90
12111;DHT22;6119;52.372;8.990;2023-02-28T01:23:24;1.00;99.90
12111;DHT22;6119;52.372;8.990;2023-02-28T01:26:13;1.00;99.90
12111;DHT22;6119;52.372;8.990;2023-02-28T01:29:01;0.90;99.90
12111;DHT22;6119;52.372;8.990;2023-02-28T01:31:48;0.90;99.90
12111;DHT22;6119;52.372;8.990;2023-02-28T01:34:35;0.80;99.90
12111;DHT22;6119;52.372;8.990;2023-02-28T01:37:21;0.90;99.90
12111;DHT22;6119;52.372;8.990;2023-02-28T01:40:09;0.90;99.90
12111;DHT22;6119;52.372;8.990;2023-02-28T01:42:55;0.80;99.90
12111;DHT22;6119;52.372;8.990;2023-02-28T01:45:43;0.80;99.90
12111;DHT22;6119;52.372;8.990;2023-02-28T01:48:32;0.80;99.90
12111;DHT22;6119;52.372;8.990;2023-02-28T01:51:22;0.80;99.90
12111;DHT22;6119;52.372;8.990;2023-02-28T01:54:14;0.80;99.90
12111;DHT22;6119;52.372;8.990;2023-02-28T01:57:04;0.80;99.90
12111;DHT22;6119;52.372;8.990;2023-02-28T01:59:54;0.70;99.90
12111;DHT22;6119;52.372;8.990;2023-02-28T02:02:47;0.70;99.90
12111;DHT22;6119;52.372;8.990;2023-02-28T02:05:37;0.70;99.90
12111;DHT22;6119;52.372;8.990;2023-02-28T02:08:26;0.70;99.90
12111;DHT22;6119;52.372;8.990;2023-02-28T02:11:19;0.60;99.90
12111;DHT22;6119;52.372;8.990;2023-02-28T02:14:27;0.60;99.90
12111;DHT22;6119;52.372;8.990;2023-02-28T02:17:26;0.60;99.90
12111;DHT22;6119;52.372;8.990;2023-02-28T02:23:55;0.50;99.90
12111;DHT22;6119;52.372;8.990;2023-02-28T02:27:14;0.40;99.90
12111;DHT22;6119;52.372;8.990;2023-02-28T02:30:30;0.40;99.90
12111;DHT22;6119;52.372;8.990;2023-02-28T02:33:29;0.40;99.90
12111;DHT22;6119;52.372;8.990;2023-02-28T02:36:25;0.40;99.90
12111;DHT22;6119;52.372;8.990;2023-02-28T02:39:16;0.40;99.90
12111;DHT22;6119;52.372;8.990;2023-02-28T02:42:11;0.40;99.90
12111;DHT22;6119;52.372;8.990;2023-02-28T02:45:03;0.40;99.90
12111;DHT22;6119;52.372;8.990;2023-02-28T02:47:53;0.50;99.90
12111;DHT22;6119;52.372;8.990;2023-02-28T02:50:45;0.50;99.90
12111;DHT22;6119;52.372;8.990;2023-02-28T02:53:37;0.50;99.90
12111;DHT22;6119;52.372;8.990;2023-02-28T02:56:28;0.50;99.90
12111;DHT22;6119;52.372;8.990;2023-02-28T02:59:20;0.40;99.90
12111;DHT22;6119;52.372;8.990;2023-02-28T03:02:11;0.40;99.90
12111;DHT22;6119;52.372;8.990;2023-02-28T03:05:01;0.40;99.90
12111;DHT22;6119;52.372;8.990;2023-02-28T03:07:48;0.40;99.90
12111;DHT22;6119;52.372;8.990;2023-02-28T03:10:39;0.40;99.90
12111;DHT22;6119;52.372;8.990;2023-02-28T03:14:05;0.30;99.90
12111;DHT22;6119;52.372;8.990;2023-02-28T03:17:17;0.30;99.90
12111;DHT22;6119;52.372;8.990;2023-02-28T03:20:13;0.30;99.90
12111;DHT22;6119;52.372;8.990;2023-02-28T03:23:10;0.30;99.90
12111;DHT22;6119;52.372;8.990;2023-02-28T03:26:03;0.20;99.90
12111;DHT22;6119;52.372;8.990;2023-02-28T03:28:54;0.20;99.90
12111;DHT22;6119;52.372;8.990;2023-02-28T03:31:46;0.20;99.90
12111;DHT22;6119;52.372;8.990;2023-02-28T03:34:37;0.00;99.90
12111;DHT22;6119;52.372;8.990;2023-02-28T03:37:25;0.00;99.90
12111;DHT22;6119;52.372;8.990;2023-02-28T03:40:16;0.00;99.90
12111;DHT22;6119;52.372;8.990;2023-02-28T03:43:10;-0.10;99.90
12111;DHT22;6119;52.372;8.990;2023-02-28T03:46:00;-0.10;99.90
12111;DHT22;6119;52.372;8.990;2023-02-28T03:48:51;-0.10;99.90
12111;DHT22;6119;52.372;8.990;2023-02-28T03:51:41;-0.10;99.90
12111;DHT22;6119;52.372;8.990;2023-02-28T03:54:32;-0.10;99.90
12111;DHT22;6119;52.372;8.990;2023-02-28T03:57:25;-0.30;99.90
12111;DHT22;6119;52.372;8.990;2023-02-28T04:00:17;-0.30;99.90
12111;DHT22;6119;52.372;8.990;2023-02-28T04:03:05;-0.30;99.90
12111;DHT22;6119;52.372;8.990;2023-02-28T04:05:53;-0.30;99.90
12111;DHT22;6119;52.372;8.990;2023-02-28T04:08:41;-0.30;99.90
12111;DHT22;6119;52.372;8.990;2023-02-28T04:11:31;-0.40;99.90
12111;DHT22;6119;52.372;8.990;2023-02-28T04:14:20;-0.40;99.90
12111;DHT22;6119;52.372;8.990;2023-02-28T04:17:07;-0.40;99.90
12111;DHT22;6119;52.372;8.990;2023-02-28T04:19:54;-0.50;99.90
12111;DHT22;6119;52.372;8.990;2023-02-28T04:22:42;-0.50;99.90
12111;DHT22;6119;52.372;8.990;2023-02-28T04:25:29;-0.50;99.90
12111;DHT22;6119;52.372;8.990;2023-02-28T04:28:15;-0.50;99.90
12111;DHT22;6119;52.372;8.990;2023-02-28T04:31:04;-0.50;99.90
12111;DHT22;6119;52.372;8.990;2023-02-28T04:33:52;-0.50;99.90
12111;DHT22;6119;52.372;8.990;2023-02-28T04:36:39;-0.50;99.90
12111;DHT22;6119;52.372;8.990;2023-02-28T04:39:26;-0.60;99.90
12111;DHT22;6119;52.372;8.990;2023-02-28T04:42:13;-0.60;99.90
12111;DHT22;6119;52.372;8.990;2023-02-28T04:44:59;-0.70;99.90
12111;DHT22;6119;52.372;8.990;2023-02-28T04:47:46;-0.70;99.90
12111;DHT22;6119;52.372;8.990;2023-02-28T04:50:33;-0.70;99.90
12111;DHT22;6119;52.372;8.990;2023-02-28T04:53:21;-0.70;99.90
12111;DHT22;6119;52.372;8.990;2023-02-28T04:56:09;-0.70;99.90
12111;DHT22;6119;52.372;8.990;2023-02-28T04:58:56;-0.70;99.90
12111;DHT22;6119;52.372;8.990;2023-02-28T05:01:46;-0.80;99.90
12111;DHT22;6119;52.372;8.990;2023-02-28T05:04:33;-0.80;99.90
12111;DHT22;6119;52.372;8.990;2023-02-28T05:07:22;-0.80;99.90
12111;DHT22;6119;52.372;8.990;2023-02-28T05:10:10;-0.80;99.90
12111;DHT22;6119;52.372;8.990;2023-02-28T05:12:56;-0.80;99.90
12111;DHT22;6119;52.372;8.990;2023-02-28T05:15:43;-0.80;99.90
12111;DHT22;6119;52.372;8.990;2023-02-28T05:18:29;-0.80;99.90
12111;DHT22;6119;52.372;8.990;2023-02-28T05:21:24;-0.90;99.90
12111;DHT22;6119;52.372;8.990;2023-02-28T05:24:12;-0.90;99.90
12111;DHT22;6119;52.372;8.990;2023-02-28T05:26:59;-1.00;99.90
12111;DHT22;6119;52.372;8.990;2023-02-28T05:29:46;-1.00;99.90
12111;DHT22;6119;52.372;8.990;2023-02-28T05:32:32;-0.90;99.90
12111;DHT22;6119;52.372;8.990;2023-02-28T05:35:19;-0.90;99.90
12111;DHT22;6119;52.372;8.990;2023-02-28T05:38:06;-1.00;99.90
12111;DHT22;6119;52.372;8.990;2023-02-28T05:40:54;-0.90;99.90
12111;DHT22;6119;52.372;8.990;2023-02-28T05:43:41;-0.90;99.90
12111;DHT22;6119;52.372;8.990;2023-02-28T05:46:27;-1.00;99.90
12111;DHT22;6119;52.372;8.990;2023-02-28T05:49:14;-1.00;99.90
12111;DHT22;6119;52.372;8.990;2023-02-28T05:52:00;-1.00;99.90
12111;DHT22;6119;52.372;8.990;2023-02-28T05:54:47;-1.00;99.90
12111;DHT22;6119;52.372;8.990;2023-02-28T05:57:35;-1.00;99.90
12111;DHT22;6119;52.372;8.990;2023-02-28T06:00:22;-1.10;99.90
12111;DHT22;6119;52.372;8.990;2023-02-28T06:03:08;-1.10;99.90
12111;DHT22;6119;52.372;8.990;2023-02-28T06:05:55;-1.10;99.90
12111;DHT22;6119;52.372;8.990;2023-02-28T06:08:42;-1.20;99.90
12111;DHT22;6119;52.372;8.990;2023-02-28T06:11:30;-1.20;99.90
12111;DHT22;6119;52.372;8.990;2023-02-28T06:14:19;-3.50;99.90
12111;DHT22;6119;52.372;8.990;2023-02-28T06:17:06;-1.20;99.90
12111;DHT22;6119;52.372;8.990;2023-02-28T06:19:52;-1.20;99.90
12111;DHT22;6119;52.372;8.990;2023-02-28T06:22:39;-1.20;99.90
12111;DHT22;6119;52.372;8.990;2023-02-28T06:25:26;-1.20;99.90
12111;DHT22;6119;52.372;8.990;2023-02-28T06:28:13;-1.30;99.90
12111;DHT22;6119;52.372;8.990;2023-02-28T06:31:06;-1.20;99.90
12111;DHT22;6119;52.372;8.990;2023-02-28T06:33:53;-1.20;99.90
12111;DHT22;6119;52.372;8.990;2023-02-28T06:36:39;-1.20;99.90
12111;DHT22;6119;52.372;8.990;2023-02-28T06:39:26;-1.20;99.90
12111;DHT22;6119;52.372;8.990;2023-02-28T06:42:13;-1.20;99.90
12111;DHT22;6119;52.372;8.990;2023-02-28T06:44:59;-1.20;99.90
12111;DHT22;6119;52.372;8.990;2023-02-28T06:47:49;-1.20;99.90
12111;DHT22;6119;52.372;8.990;2023-02-28T06:50:37;-1.20;99.90
12111;DHT22;6119;52.372;8.990;2023-02-28T06:53:24;-1.20;99.90
12111;DHT22;6119;52.372;8.990;2023-02-28T06:56:13;-1.20;99.90
12111;DHT22;6119;52.372;8.990;2023-02-28T06:59:00;-1.10;99.90
12111;DHT22;6119;52.372;8.990;2023-02-28T07:01:46;-1.10;99.90
12111;DHT22;6119;52.372;8.990;2023-02-28T07:04:34;-1.00;99.90
12111;DHT22;6119;52.372;8.990;2023-02-28T07:07:21;-0.90;99.90
12111;DHT22;6119;52.372;8.990;2023-02-28T07:10:09;-0.90;99.90
12111;DHT22;6119;52.372;8.990;2023-02-28T07:12:57;-0.80;99.90
12111;DHT22;6119;52.372;8.990;2023-02-28T07:15:43;-0.80;99.90
12111;DHT22;6119;52.372;8.990;2023-02-28T07:18:30;-0.70;99.90
12111;DHT22;6119;52.372;8.990;2023-02-28T07:21:17;-0.60;99.90
12111;DHT22;6119;52.372;8.990;2023-02-28T07:24:04;-0.60;99.90
12111;DHT22;6119;52.372;8.990;2023-02-28T07:26:51;-0.60;99.90
12111;DHT22;6119;52.372;8.990;2023-02-28T07:29:38;-0.50;99.90
12111;DHT22;6119;52.372;8.990;2023-02-28T07:32:24;-0.40;99.90
12111;DHT22;6119;52.372;8.990;2023-02-28T07:35:11;-0.40;99.90
12111;DHT22;6119;52.372;8.990;2023-02-28T07:38:02;-0.30;99.90
12111;DHT22;6119;52.372;8.990;2023-02-28T07:40:49;-0.20;99.90
12111;DHT22;6119;52.372;8.990;2023-02-28T07:43:35;-0.10;99.90
12111;DHT22;6119;52.372;8.990;2023-02-28T07:46:22;0.00;99.90
12111;DHT22;6119;52.372;8.990;2023-02-28T07:49:09;0.10;99.90
12111;DHT22;6119;52.372;8.990;2023-02-28T07:51:55;0.20;99.90
12111;DHT22;6119;52.372;8.990;2023-02-28T07:54:43;0.30;99.90
12111;DHT22;6119;52.372;8.990;2023-02-28T07:57:30;0.40;99.90
12111;DHT22;6119;52.372;8.990;2023-02-28T08:00:20;0.50;99.90
12111;DHT22;6119;52.372;8.990;2023-02-28T08:03:08;0.60;99.90
12111;DHT22;6119;52.372;8.990;2023-02-28T08:05:57;0.70;99.90
12111;DHT22;6119;52.372;8.990;2023-02-28T08:08:43;0.80;99.90
12111;DHT22;6119;52.372;8.990;2023-02-28T08:11:32;0.90;99.90
12111;DHT22;6119;52.372;8.990;2023-02-28T08:14:19;1.00;99.90
12111;DHT22;6119;52.372;8.990;2023-02-28T08:17:06;1.10;99.90
12111;DHT22;6119;52.372;8.990;2023-02-28T08:19:53;1.20;99.90
12111;DHT22;6119;52.372;8.990;2023-02-28T08:22:39;1.20;99.90
12111;DHT22;6119;52.372;8.990;2023-02-28T08:25:30;1.30;99.90
12111;DHT22;6119;52.372;8.990;2023-02-28T08:28:18;1.30;99.90
12111;DHT22;6119;52.372;8.990;2023-02-28T08:31:07;1.60;99.90
12111;DHT22;6119;52.372;8.990;2023-02-28T08:33:54;1.60;99.90
12111;DHT22;6119;52.372;8.990;2023-02-28T08:36:44;1.70;99.90
12111;DHT22;6119;52.372;8.990;2023-02-28T08:39:34;1.90;99.90
12111;DHT22;6119;52.372;8.990;2023-02-28T08:42:20;1.90;99.90
12111;DHT22;6119;52.372;8.990;2023-02-28T08:45:09;2.00;99.90
12111;DHT22;6119;52.372;8.990;2023-02-28T08:47:55;2.10;99.90
12111;DHT22;6119;52.372;8.990;2023-02-28T08:50:42;2.20;99.90
12111;DHT22;6119;52.372;8.990;2023-02-28T08:53:34;2.30;99.90
12111;DHT22;6119;52.372;8.990;2023-02-28T08:56:21;2.30;99.90
12111;DHT22;6119;52.372;8.990;2023-02-28T08:59:08;2.40;99.90
12111;DHT22;6119;52.372;8.990;2023-02-28T09:01:56;2.50;99.90
12111;DHT22;6119;52.372;8.990;2023-02-28T09:04:43;2.60;99.90
12111;DHT22;6119;52.372;8.990;2023-02-28T09:07:30;2.80;99.90
12111;DHT22;6119;52.372;8.990;2023-02-28T09:10:17;2.80;99.90
12111;DHT22;6119;52.372;8.990;2023-02-28T09:13:04;2.90;99.90
12111;DHT22;6119;52.372;8.990;2023-02-28T09:15:50;2.90;99.90
12111;DHT22;6119;52.372;8.990;2023-02-28T09:18:39;3.00;99.90
12111;DHT22;6119;52.372;8.990;2023-02-28T09:21:26;3.10;99.90
12111;DHT22;6119;52.372;8.990;2023-02-28T09:24:13;3.30;99.90
12111;DHT22;6119;52.372;8.990;2023-02-28T09:27:00;3.40;99.90
12111;DHT22;6119;52.372;8.990;2023-02-28T09:29:49;3.60;99.90
12111;DHT22;6119;52.372;8.990;2023-02-28T09:32:36;3.60;99.90
12111;DHT22;6119;52.372;8.990;2023-02-28T09:35:24;3.80;99.90
12111;DHT22;6119;52.372;8.990;2023-02-28T09:38:11;3.90;99.90
12111;DHT22;6119;52.372;8.990;2023-02-28T09:41:00;4.00;99.90
12111;DHT22;6119;52.372;8.990;2023-02-28T09:43:49;4.00;99.90
12111;DHT22;6119;52.372;8.990;2023-02-28T09:46:39;4.10;99.90
12111;DHT22;6119;52.372;8.990;2023-02-28T09:49:34;4.20;99.90
12111;DHT22;6119;52.372;8.990;2023-02-28T09:52:27;4.40;99.90
12111;DHT22;6119;52.372;8.990;2023-02-28T09:55:21;4.60;99.90
12111;DHT22;6119;52.372;8.990;2023-02-28T09:58:15;4.50;99.90
12111;DHT22;6119;52.372;8.990;2023-02-28T10:01:09;4.70;99.90
12111;DHT22;6119;52.372;8.990;2023-02-28T10:04:00;4.80;99.90
12111;DHT22;6119;52.372;8.990;2023-02-28T10:06:50;4.80;99.90
12111;DHT22;6119;52.372;8.990;2023-02-28T10:09:38;4.80;99.90
12111;DHT22;6119;52.372;8.990;2023-02-28T10:12:26;4.90;99.90
12111;DHT22;6119;52.372;8.990;2023-02-28T10:15:16;5.10;99.90
12111;DHT22;6119;52.372;8.990;2023-02-28T10:18:05;5.30;99.90
12111;DHT22;6119;52.372;8.990;2023-02-28T10:20:56;5.20;99.90
12111;DHT22;6119;52.372;8.990;2023-02-28T10:23:43;5.40;99.90
12111;DHT22;6119;52.372;8.990;2023-02-28T10:26:35;5.60;99.90
12111;DHT22;6119;52.372;8.990;2023-02-28T10:29:22;5.60;99.90
12111;DHT22;6119;52.372;8.990;2023-02-28T10:32:11;5.80;99.90
12111;DHT22;6119;52.372;8.990;2023-02-28T10:35:07;5.90;99.90
12111;DHT22;6119;52.372;8.990;2023-02-28T10:37:58;6.00;99.90
12111;DHT22;6119;52.372;8.990;2023-02-28T10:40:46;6.10;99.90
12111;DHT22;6119;52.372;8.990;2023-02-28T10:43:34;6.00;99.90
12111;DHT22;6119;52.372;8.990;2023-02-28T10:46:21;6.00;99.90
12111;DHT22;6119;52.372;8.990;2023-02-28T10:49:14;6.10;99.90
12111;DHT22;6119;52.372;8.990;2023-02-28T10:52:03;6.20;99.90
12111;DHT22;6119;52.372;8.990;2023-02-28T10:55:14;6.30;99.90
12111;DHT22;6119;52.372;8.990;2023-02-28T10:58:00;6.40;99.90
12111;DHT22;6119;52.372;8.990;2023-02-28T11:00:48;6.50;99.90
12111;DHT22;6119;52.372;8.990;2023-02-28T11:03:35;6.60;99.90
12111;DHT22;6119;52.372;8.990;2023-02-28T11:06:23;6.70;99.90
12111;DHT22;6119;52.372;8.990;2023-02-28T11:09:21;6.60;99.90
12111;DHT22;6119;52.372;8.990;2023-02-28T11:12:23;6.70;99.90
12111;DHT22;6119;52.372;8.990;2023-02-28T11:15:22;6.70;99.90
12111;DHT22;6119;52.372;8.990;2023-02-28T11:18:21;6.90;99.90
12111;DHT22;6119;52.372;8.990;2023-02-28T11:21:14;7.00;99.90
12111;DHT22;6119;52.372;8.990;2023-02-28T11:24:05;6.90;99.90
12111;DHT22;6119;52.372;8.990;2023-02-28T11:26:53;7.10;99.90
12111;DHT22;6119;52.372;8.990;2023-02-28T11:29:47;7.50;99.90
12111;DHT22;6119;52.372;8.990;2023-02-28T11:32:34;7.50;99.90
12111;DHT22;6119;52.372;8.990;2023-02-28T11:35:26;7.50;99.90
12111;DHT22;6119;52.372;8.990;2023-02-28T11:38:13;7.40;99.90
12111;DHT22;6119;52.372;8.990;2023-02-28T11:41:09;7.60;99.90
12111;DHT22;6119;52.372;8.990;2023-02-28T11:44:06;7.50;99.90
12111;DHT22;6119;52.372;8.990;2023-02-28T11:46:59;7.30;99.90
12111;DHT22;6119;52.372;8.990;2023-02-28T11:49:56;7.30;99.90
12111;DHT22;6119;52.372;8.990;2023-02-28T11:52:53;7.10;99.90
12111;DHT22;6119;52.372;8.990;2023-02-28T11:55:43;6.90;99.90
12111;DHT22;6119;52.372;8.990;2023-02-28T11:58:42;6.60;99.90
12111;DHT22;6119;52.372;8.990;2023-02-28T12:01:46;6.30;99.90
12111;DHT22;6119;52.372;8.990;2023-02-28T12:04:49;6.20;99.90
12111;DHT22;6119;52.372;8.990;2023-02-28T12:07:50;6.20;99.90
12111;DHT22;6119;52.372;8.990;2023-02-28T12:10:49;6.20;99.90
12111;DHT22;6119;52.372;8.990;2023-02-28T12:13:47;6.40;99.90
12111;DHT22;6119;52.372;8.990;2023-02-28T12:16:44;6.80;99.90
12111;DHT22;6119;52.372;8.990;2023-02-28T12:19:39;7.00;99.90
12111;DHT22;6119;52.372;8.990;2023-02-28T12:22:31;6.90;99.90
12111;DHT22;6119;52.372;8.990;2023-02-28T12:25:45;6.90;99.90
12111;DHT22;6119;52.372;8.990;2023-02-28T12:28:34;7.20;99.90
12111;DHT22;6119;52.372;8.990;2023-02-28T12:31:24;7.50;99.90
12111;DHT22;6119;52.372;8.990;2023-02-28T12:34:19;7.60;99.90
12111;DHT22;6119;52.372;8.990;2023-02-28T12:37:10;7.80;99.90
12111;DHT22;6119;52.372;8.990;2023-02-28T12:40:09;7.90;99.90
12111;DHT22;6119;52.372;8.990;2023-02-28T12:43:03;8.10;99.90
12111;DHT22;6119;52.372;8.990;2023-02-28T12:45:53;8.10;99.40
12111;DHT22;6119;52.372;8.990;2023-02-28T12:48:44;7.90;98.10
12111;DHT22;6119;52.372;8.990;2023-02-28T12:51:32;7.90;98.60
12111;DHT22;6119;52.372;8.990;2023-02-28T12:54:25;7.90;98.50
12111;DHT22;6119;52.372;8.990;2023-02-28T12:57:22;8.00;99.70
12111;DHT22;6119;52.372;8.990;2023-02-28T13:00:15;8.00;97.60
12111;DHT22;6119;52.372;8.990;2023-02-28T13:06:41;8.10;98.90
12111;DHT22;6119;52.372;8.990;2023-02-28T13:09:31;8.30;98.50
12111;DHT22;6119;52.372;8.990;2023-02-28T13:12:18;8.30;97.90
12111;DHT22;6119;52.372;8.990;2023-02-28T13:15:08;8.30;98.50
12111;DHT22;6119;52.372;8.990;2023-02-28T13:18:01;8.30;97.50
12111;DHT22;6119;52.372;8.990;2023-02-28T13:20:48;8.30;97.90
12111;DHT22;6119;52.372;8.990;2023-02-28T13:23:56;8.20;96.50
12111;DHT22;6119;52.372;8.990;2023-02-28T13:34:12;8.30;95.60
12111;DHT22;6119;52.372;8.990;2023-02-28T13:37:33;8.50;97.40
12111;DHT22;6119;52.372;8.990;2023-02-28T13:40:30;8.60;96.80
12111;DHT22;6119;52.372;8.990;2023-02-28T13:44:01;8.60;97.50
12111;DHT22;6119;52.372;8.990;2023-02-28T13:47:20;8.60;97.30
12111;DHT22;6119;52.372;8.990;2023-02-28T13:50:24;8.80;97.40
12111;DHT22;6119;52.372;8.990;2023-02-28T13:56:46;8.50;96.30
12111;DHT22;6119;52.372;8.990;2023-02-28T13:59:42;8.70;97.60
12111;DHT22;6119;52.372;8.990;2023-02-28T14:02:45;8.70;96.60
12111;DHT22;6119;52.372;8.990;2023-02-28T14:05:37;8.50;96.10
12111;DHT22;6119;52.372;8.990;2023-02-28T14:08:24;8.40;96.20
12111;DHT22;6119;52.372;8.990;2023-02-28T14:11:25;8.50;96.00
12111;DHT22;6119;52.372;8.990;2023-02-28T14:14:55;8.60;96.70
12111;DHT22;6119;52.372;8.990;2023-02-28T14:17:43;8.80;96.20
12111;DHT22;6119;52.372;8.990;2023-02-28T14:20:32;8.70;96.80
12111;DHT22;6119;52.372;8.990;2023-02-28T14:23:43;8.70;96.20
12111;DHT22;6119;52.372;8.990;2023-02-28T14:26:44;8.70;96.20
12111;DHT22;6119;52.372;8.990;2023-02-28T14:29:45;8.50;96.10
12111;DHT22;6119;52.372;8.990;2023-02-28T14:32:44;8.60;97.50
12111;DHT22;6119;52.372;8.990;2023-02-28T14:35:46;8.70;97.50
12111;DHT22;6119;52.372;8.990;2023-02-28T14:38:40;8.80;97.90
12111;DHT22;6119;52.372;8.990;2023-02-28T14:41:30;8.90;97.40
12111;DHT22;6119;52.372;8.990;2023-02-28T14:44:22;8.80;97.60
12111;DHT22;6119;52.372;8.990;2023-02-28T14:47:14;8.70;96.80
12111;DHT22;6119;52.372;8.990;2023-02-28T14:50:04;8.70;97.30
12111;DHT22;6119;52.372;8.990;2023-02-28T14:52:52;8.60;97.10
12111;DHT22;6119;52.372;8.990;2023-02-28T14:55:44;8.50;97.20
12111;DHT22;6119;52.372;8.990;2023-02-28T14:58:33;8.30;96.90
12111;DHT22;6119;52.372;8.990;2023-02-28T15:01:21;8.30;97.30
12111;DHT22;6119;52.372;8.990;2023-02-28T15:04:21;8.30;97.10
12111;DHT22;6119;52.372;8.990;2023-02-28T15:07:11;8.00;96.90
12111;DHT22;6119;52.372;8.990;2023-02-28T15:10:10;8.00;97.90
12111;DHT22;6119;52.372;8.990;2023-02-28T15:12:59;7.90;98.50
12111;DHT22;6119;52.372;8.990;2023-02-28T15:15:51;7.90;97.50
12111;DHT22;6119;52.372;8.990;2023-02-28T15:18:50;7.80;97.50
12111;DHT22;6119;52.372;8.990;2023-02-28T15:21:40;8.00;98.10
12111;DHT22;6119;52.372;8.990;2023-02-28T15:24:36;7.90;98.10
12111;DHT22;6119;52.372;8.990;2023-02-28T15:27:27;8.00;98.60
12111;DHT22;6119;52.372;8.990;2023-02-28T15:30:19;8.10;98.50
12111;DHT22;6119;52.372;8.990;2023-02-28T15:33:18;8.10;99.10
12111;DHT22;6119;52.372;8.990;2023-02-28T15:36:10;8.30;98.30
12111;DHT22;6119;52.372;8.990;2023-02-28T15:38:58;8.50;97.50
12111;DHT22;6119;52.372;8.990;2023-02-28T15:42:16;8.50;97.20
12111;DHT22;6119;52.372;8.990;2023-02-28T15:45:04;8.60;97.50
12111;DHT22;6119;52.372;8.990;2023-02-28T15:47:51;8.70;97.60
12111;DHT22;6119;52.372;8.990;2023-02-28T15:50:40;8.90;97.60
12111;DHT22;6119;52.372;8.990;2023-02-28T15:53:31;9.00;96.50
12111;DHT22;6119;52.372;8.990;2023-02-28T15:56:24;9.10;96.90
12111;DHT22;6119;52.372;8.990;2023-02-28T15:59:17;9.20;96.40
12111;DHT22;6119;52.372;8.990;2023-02-28T16:02:16;9.40;96.60
12111;DHT22;6119;52.372;8.990;2023-02-28T16:05:20;9.30;96.00
12111;DHT22;6119;52.372;8.990;2023-02-28T16:08:14;9.50;96.40
12111;DHT22;6119;52.372;8.990;2023-02-28T16:11:01;9.60;96.60
12111;DHT22;6119;52.372;8.990;2023-02-28T16:13:48;9.60;95.50
12111;DHT22;6119;52.372;8.990;2023-02-28T16:16:42;9.40;96.00
12111;DHT22;6119;52.372;8.990;2023-02-28T16:19:30;9.50;95.60
12111;DHT22;6119;52.372;8.990;2023-02-28T16:22:18;9.40;95.80
12111;DHT22;6119;52.372;8.990;2023-02-28T16:25:05;9.00;95.50
12111;DHT22;6119;52.372;8.990;2023-02-28T16:27:53;8.90;96.30
12111;DHT22;6119;52.372;8.990;2023-02-28T16:30:42;8.60;96.60
12111;DHT22;6119;52.372;8.990;2023-02-28T16:33:30;8.20;96.70
12111;DHT22;6119;52.372;8.990;2023-02-28T16:36:21;7.90;97.40
12111;DHT22;6119;52.372;8.990;2023-02-28T16:39:08;7.80;97.60
12111;DHT22;6119;52.372;8.990;2023-02-28T16:41:55;7.60;97.70
12111;DHT22;6119;52.372;8.990;2023-02-28T16:44:42;7.50;98.20
12111;DHT22;6119;52.372;8.990;2023-02-28T16:47:28;7.40;98.20
12111;DHT22;6119;52.372;8.990;2023-02-28T16:50:21;7.30;98.40
12111;DHT22;6119;52.372;8.990;2023-02-28T16:53:07;7.10;98.70
12111;DHT22;6119;52.372;8.990;2023-02-28T16:55:54;7.00;98.80
12111;DHT22;6119;52.372;8.990;2023-02-28T16:58:40;7.00;99.40
12111;DHT22;6119;52.372;8.990;2023-02-28T17:01:27;6.90;99.00
12111;DHT22;6119;52.372;8.990;2023-02-28T17:04:14;6.90;99.90
12111;DHT22;6119;52.372;8.990;2023-02-28T17:07:02;6.70;99.60
12111;DHT22;6119;52.372;8.990;2023-02-28T17:09:49;6.60;99.80
12111;DHT22;6119;52.372;8.990;2023-02-28T17:12:35;6.50;99.90
12111;DHT22;6119;52.372;8.990;2023-02-28T17:15:22;6.50;99.90
12111;DHT22;6119;52.372;8.990;2023-02-28T17:18:12;6.40;99.90
12111;DHT22;6119;52.372;8.990;2023-02-28T17:21:00;6.30;99.90
12111;DHT22;6119;52.372;8.990;2023-02-28T17:23:47;6.30;99.90
12111;DHT22;6119;52.372;8.990;2023-02-28T17:26:34;6.20;99.90
12111;DHT22;6119;52.372;8.990;2023-02-28T17:29:21;6.10;99.90
12111;DHT22;6119;52.372;8.990;2023-02-28T17:32:09;6.10;99.90
12111;DHT22;6119;52.372;8.990;2023-02-28T17:35:04;6.00;99.90
12111;DHT22;6119;52.372;8.990;2023-02-28T17:37:50;5.90;99.90
12111;DHT22;6119;52.372;8.990;2023-02-28T17:40:39;5.90;99.90
12111;DHT22;6119;52.372;8.990;2023-02-28T17:43:26;5.80;99.90
12111;DHT22;6119;52.372;8.990;2023-02-28T17:46:16;5.80;99.90
12111;DHT22;6119;52.372;8.990;2023-02-28T17:49:05;5.70;99.90
12111;DHT22;6119;52.372;8.990;2023-02-28T17:51:52;5.60;99.90
12111;DHT22;6119;52.372;8.990;2023-02-28T17:54:38;5.60;99.90
12111;DHT22;6119;52.372;8.990;2023-02-28T17:57:26;5.50;99.90
12111;DHT22;6119;52.372;8.990;2023-02-28T18:00:14;5.40;99.90
12111;DHT22;6119;52.372;8.990;2023-02-28T18:03:02;5.40;99.90
12111;DHT22;6119;52.372;8.990;2023-02-28T18:05:49;5.30;99.90
12111;DHT22;6119;52.372;8.990;2023-02-28T18:08:36;5.20;99.90
12111;DHT22;6119;52.372;8.990;2023-02-28T18:11:23;5.10;99.90
12111;DHT22;6119;52.372;8.990;2023-02-28T18:14:13;5.10;99.90
12111;DHT22;6119;52.372;8.990;2023-02-28T18:17:00;5.00;99.90
12111;DHT22;6119;52.372;8.990;2023-02-28T18:19:46;5.00;99.90
12111;DHT22;6119;52.372;8.990;2023-02-28T18:22:33;4.80;99.90
12111;DHT22;6119;52.372;8.990;2023-02-28T18:25:21;4.80;99.90
12111;DHT22;6119;52.372;8.990;2023-02-28T18:28:07;4.60;99.90
12111;DHT22;6119;52.372;8.990;2023-02-28T18:30:55;4.50;99.90
12111;DHT22;6119;52.372;8.990;2023-02-28T18:33:42;5.30;99.90
12111;DHT22;6119;52.372;8.990;2023-02-28T18:36:28;4.40;99.90
12111;DHT22;6119;52.372;8.990;2023-02-28T18:39:16;4.40;99.90
12111;DHT22;6119;52.372;8.990;2023-02-28T18:42:02;4.40;99.90
12111;DHT22;6119;52.372;8.990;2023-02-28T18:44:49;4.20;99.90
12111;DHT22;6119;52.372;8.990;2023-02-28T18:47:36;4.10;99.90